Flight Track Log - Related Links

Times and Time Zones

All times are in EDT time to prevent confusion due to time zone crossing. See the AAH28 flight status page for this flight to view local times or setup timezone preferences in your user account.

Time Position Orientation Groundspeed Altitude Reporting Facility
EDT Latitude Longitude Course Direction KTS MPH feet Rate Location/Type
Sat 03:02:38 AM 21.3167 -157.9000 148° Southeast 160 184 1,100  Level Honolulu Center
Sat 03:03:38 AM 21.2667 -157.8667 148° Southeast 270 311 2,600 2,550 Climbing Honolulu Center
Sat 03:04:38 AM 21.2000 -157.8167 145° Southeast 290 334 6,200 3,550 Climbing Honolulu Center
Sat 03:05:38 AM 21.1667 -157.7333 113° Southeast 300 345 9,700 2,950 Climbing Honolulu Center
Sat 03:06:38 AM 21.1333 -157.6500 113° Southeast 320 368 12,100 2,500 Climbing Honolulu Center
Sat 03:07:38 AM 21.1000 -157.5500 110° East 350 403 14,700 1,450 Climbing Honolulu Center
Sat 03:08:38 AM 21.0500 -157.4667 123° Southeast 360 414 15,000 150 Climbing Honolulu Center
Sat 03:09:38 AM 21.0000 -157.3667 118° Southeast 370 426 15,000  Level Honolulu Center
Sat 03:10:39 AM 20.9500 -157.2667 118° Southeast 370 426 15,000 -595 Level Honolulu Center
Sat 03:11:39 AM 20.9167 -157.1667 110° East 360 414 13,800 -1,300 Descending Honolulu Center
Sat 03:12:39 AM 20.8667 -157.0667 118° Southeast 350 403 12,400 -1,550 Descending Honolulu Center
Sat 03:13:39 AM 20.8333 -156.9833 113° Southeast 330 380 10,700 -1,350 Descending Honolulu Center
Sat 03:14:39 AM 20.7833 -156.9000 123° Southeast 300 345 9,700 -1,400 Descending Honolulu Center
Sat 03:15:39 AM 20.7500 -156.8333 118° Southeast 290 334 7,900 -1,650 Descending Honolulu Center
Sat 03:16:39 AM 20.7167 -156.7500 113° Southeast 280 322 6,400 -1,488 Descending Honolulu Center
Sat 03:17:40 AM 20.6833 -156.6667 113° Southeast 280 322 4,900 -1,438 Descending Honolulu Center
Sat 03:18:40 AM 20.7000 -156.6000 75° East 260 299 3,500 -1,000 Descending Honolulu Center
Sat 03:19:40 AM 20.7333 -156.5333 62° Northeast 240 276 2,900 -650 Descending Honolulu Center
Sat 03:20:40 AM 20.7833 -156.5000 32° Northeast 200 230 2,200 -750 Descending Honolulu Center
Sat 03:21:40 AM 20.8167 -156.4667 43° Northeast 180 207 1,400 -750 Descending Honolulu Center
Sat 03:22:40 AM 20.8500 -156.4500 25° Northeast 140 161 700 -700 Descending Honolulu Center

Login

Don't have an account? Register now (free) for customized features, flight alerts, and more!